OJAQ/AQJ METAR and TAF weather

Enter ICAO airport designator
Station Type Date Time Source
OJAQ METAR 2019/05/20 10:00 UTC NOAA

OJAQ 201000Z 36018KT CAVOK 32/08 Q1012 NOSIG


Station Type Date Time Source
OJAQ Decoded METAR 2019/05/20 10:00 UTC NOAA

Aqaba Airport, Jordan (OJAQ) 29-38N 035-01E 51M
May 20, 2019 - 06:00 AM EDT / 2019.05.20 1000 UTC
Wind: from the N (360 degrees) at 21 MPH (18 KT):0
Visibility: greater than 7 mile(s):0
Temperature: 89 F (32 C)
Dew Point: 46 F (8 C)
Relative Humidity: 22%
Pressure (altimeter): 29.88 in. Hg (1012 hPa)
ob: OJAQ 201000Z 36018KT CAVOK 32/08 Q1012 NOSIG
cycle: 10

Station Type Date Time Source
OJAQ TAF 2019/05/20 06:12 UTC NOAA

TAF TAF OJAQ 200500Z 2006/2112 36012KT CAVOK

Example: see airport list